Wade, Mississippi
Current Conditions -  °F | °C
As of 6:08 AM on Sunday 25 Jan 2015 (Local Time) from KPQL Reporting Station
Moderate Fog Moderate Fog  
Wind Chill: 34°   Ceiling: 300
Heat Index: 34°   Visibility: 0.5mi
Dew Point: 33°   Wind: 0mph
Humidity: 96%   Direction: NA
Pressure: 30.04"   Gusts: NA
Location:  30.3649°N, 88.5432°W
Report Text: KPQL 251208Z AUTO 00000KT 1/2SM FG VV003 01/01 A3004 RMK AO2 T00110006 TSNO
Loading
Personal Weather Stations






























Interactive Weather Map New forecast layout! Learn more

10-Day Weather Forecast

Advertisements
Track Severe Weather on mobile